GFLLGLRB

Guest
Details From GFLL - FREETOWN LUNGI
To GLRB - MONROVIA ROBERTS INTL
Flight Number -
Tags decoded
Created
Modified
Stats Distance 222 nm / 411 km
Max Altitude 0 ft / 0 m
Waypoints 5
Social Downloads 1
Likes 0
Share VATSIM

Download

Looking for another format? Having issues loading an existing format? Contact us
Advertisement - Login to hide

Notes

Requested: GFLL LGI UB614 ROB GLRB

Route

GFLL LGI UB614 ROB GLRB

ID Type Via Altitude Latitude Longitude Leg Dist Tot Dist Heading (true) Name
O GFLL APT - 0 ft / 0 m 8.61644˚ -13.19549˚ - 0 nm - FREETOWN LUNGI
LGI VOR - 0 ft / 0 m 8.61718˚ -13.19137˚ 0 nm 0 nm 80° / 80° FREETOWN LUNGI VOR-DME
MATRU FIX UB614 (AWY-HI) 0 ft / 0 m 7.66674˚ -12.06648˚ 87 nm 88 nm 130° / 131° -
ROB VOR UB614 (AWY-HI) 0 ft / 0 m 6.23954˚ -10.35828˚ 133 nm 221 nm 130° / 130° MONROVIA ROBERTS VOR-DME
O GLRB APT - 0 ft / 0 m 6.23379˚ -10.36231˚ 0 nm 221 nm 215° / 215° MONROVIA ROBERTS INTL

Altitude Profile

Advertisement - Login to hide

Weather


0- 5 10 15 20 25 30 35+ Temperature / ° C

Clouds and Precipitation
Forecast for 2017-12-18 18:00 UTC. Updated 2 hours ago

Ground ~20,000 ft ~40,000 ft Winds

GFLL

Details ICAO GFLL (FNA)
Name FREETOWN LUNGI
Region Sierra Leone
Timezone Africa/Freetown (UTC+0.0)
Stats Elevation 84 ft / 26 m (AMSL)
Location 8.616443° -13.195489°
Runways 1
Magnetic Variation 7.108° W

METAR

GFLL 181700Z 24008KT 6000 HZ NSC 32/24 Q1007

Decode

TAF

TAF TAF GFLL 181000Z 1812/1918 25008KT 9999 FEW016 TEMPO 6000 HZ NSC TEMPO 1818/1903 9000 FEW013 TEMPO 00000KT 4000 BR SCT010 BECMG 1909/1911 12005KT 9000 FEW014

Decode

Departure Runways

ID Width Length Bearing (true) Bearing (mag) Surface Threshold Offset Overrun Length
12 150 ft / 46 m 10,507 ft / 3,203 m 107.14° 114.25° Asphalt 0 ft / 0 m 394 ft / 120 m
30 150 ft / 46 m 10,507 ft / 3,203 m 287.14° 294.25° Asphalt 0 ft / 0 m 197 ft / 60 m

GLRB

Details ICAO GLRB (ROB)
Name MONROVIA ROBERTS INTL
Region Liberia
Timezone Africa/Monrovia (UTC+0.0)
Stats Elevation 31 ft / 9 m (AMSL)
Location 6.233790° -10.362312°
Runways 1
Magnetic Variation 6.702° W

METAR

GLRB 181700Z 24011KT 9000 FEW020 30/25 Q1008 RMK HZVC

Decode

TAF

TAF GLRB 181000Z 1812/1918 20008KT 8000 FEW016 TEMPO 1813/1817 23006KT 6000 BECMG 1818/1820 24005KT 4000 HZ SCT014

Decode

Destination Runways

ID Width Length Bearing (true) Bearing (mag) Surface Threshold Offset Overrun Length
04 150 ft / 46 m 11,029 ft / 3,362 m 30.94° 37.64° Asphalt 0 ft / 0 m 0 ft / 0 m
22 150 ft / 46 m 11,029 ft / 3,362 m 210.94° 217.64° Asphalt 1,200 ft / 366 m 0 ft / 0 m

Popular Alternatives